createdAt,value
2017-06-01T00:02:03.145Z,17.1
2017-06-01T00:07:02.806Z,17.0
2017-06-01T00:12:03.444Z,16.9
2017-06-01T00:17:03.162Z,16.9
2017-06-01T00:22:02.709Z,16.7
2017-06-01T00:27:03.118Z,16.7
2017-06-01T00:32:04.374Z,16.6
2017-06-01T00:37:03.058Z,16.6
2017-06-01T00:42:02.662Z,16.6
2017-06-01T00:47:03.381Z,16.5
2017-06-01T00:52:02.919Z,16.5
2017-06-01T00:57:03.408Z,16.4
2017-06-01T01:02:02.992Z,16.4
2017-06-01T01:07:02.788Z,16.3
2017-06-01T01:12:03.574Z,16.3
2017-06-01T01:17:03.078Z,16.1
2017-06-01T01:22:03.325Z,16.1
2017-06-01T01:27:02.668Z,16.0
2017-06-01T01:32:03.274Z,15.9
2017-06-01T01:37:03.626Z,15.8
2017-06-01T01:42:02.922Z,15.9
2017-06-01T01:47:03.621Z,15.8
2017-06-01T01:52:03.126Z,15.7
2017-06-01T01:57:02.700Z,15.7
2017-06-01T02:02:03.276Z,15.7
2017-06-01T02:07:02.912Z,15.6
2017-06-01T02:12:03.418Z,15.6
2017-06-01T02:17:03.096Z,15.6
2017-06-01T02:22:02.714Z,15.5
2017-06-01T02:27:03.184Z,15.4
2017-06-01T02:32:03.077Z,15.4
2017-06-01T02:37:03.573Z,15.4
2017-06-01T02:42:03.372Z,15.3
2017-06-01T02:47:11.545Z,15.3
2017-06-01T02:52:03.435Z,15.3
2017-06-01T02:57:03.469Z,15.2
2017-06-01T03:02:13.495Z,15.1
2017-06-01T03:07:02.961Z,15.0
2017-06-01T03:12:03.089Z,15.0
2017-06-01T03:17:13.343Z,15.0
2017-06-01T03:22:02.703Z,15.1
2017-06-01T03:27:02.864Z,15.1
2017-06-01T03:32:17.671Z,15.1
2017-06-01T03:37:03.273Z,15.1
2017-06-01T03:42:03.496Z,15.2
2017-06-01T03:47:17.291Z,15.2
2017-06-01T03:52:03.036Z,15.2
2017-06-01T03:57:03.202Z,15.2
2017-06-01T04:02:13.579Z,15.4
2017-06-01T04:07:02.856Z,15.5
2017-06-01T04:12:03.159Z,15.7
2017-06-01T04:17:17.203Z,15.7
2017-06-01T04:22:03.068Z,15.9
2017-06-01T04:27:03.340Z,16.5
2017-06-01T04:32:13.673Z,16.5
2017-06-01T04:37:03.596Z,16.9
2017-06-01T04:42:03.547Z,17.4
2017-06-01T04:47:17.282Z,17.4
2017-06-01T04:52:03.550Z,17.7
2017-06-01T04:57:03.064Z,18.4
2017-06-01T05:02:13.592Z,18.6
2017-06-01T05:07:02.771Z,18.9
2017-06-01T05:12:03.344Z,19.2
2017-06-01T05:17:16.635Z,19.2
2017-06-01T05:22:03.361Z,19.5
2017-06-01T05:27:02.878Z,19.2
2017-06-01T05:32:03.949Z,19.0
2017-06-01T05:37:03.444Z,19.0
2017-06-01T05:42:03.556Z,19.0
2017-06-01T05:47:13.685Z,19.1
2017-06-01T05:52:03.578Z,19.1
2017-06-01T05:57:02.646Z,19.3
2017-06-01T06:02:12.004Z,19.5
2017-06-01T06:07:02.950Z,19.7
2017-06-01T06:12:03.566Z,19.7
2017-06-01T06:17:10.921Z,19.9
2017-06-01T06:22:03.180Z,20.3
2017-06-01T06:27:03.571Z,20.7
2017-06-01T06:32:16.608Z,20.9
2017-06-01T06:37:02.696Z,21.1
2017-06-01T06:42:03.226Z,21.4
2017-06-01T06:47:17.419Z,21.5
2017-06-01T06:52:02.893Z,21.7
2017-06-01T06:57:03.019Z,21.8
2017-06-01T07:02:14.050Z,22.0
2017-06-01T07:07:03.027Z,22.2
2017-06-01T07:12:02.774Z,22.3
2017-06-01T07:17:18.019Z,22.2
2017-06-01T07:22:03.032Z,22.4
2017-06-01T07:27:03.455Z,22.6
2017-06-01T07:32:13.397Z,22.6
2017-06-01T07:37:03.169Z,22.6
2017-06-01T07:42:03.469Z,22.6
2017-06-01T07:52:03.533Z,22.5
2017-06-01T07:57:02.978Z,22.7
2017-06-01T08:02:13.947Z,22.7
2017-06-01T08:07:03.605Z,23.3
2017-06-01T08:12:03.113Z,23.2
2017-06-01T08:17:13.689Z,24.0
2017-06-01T08:22:02.809Z,24.7
2017-06-01T08:27:03.457Z,24.6
2017-06-01T08:32:13.625Z,25.0
2017-06-01T08:37:02.773Z,25.5
2017-06-01T08:42:03.262Z,26.0
2017-06-01T08:47:16.448Z,26.8
2017-06-01T08:52:03.345Z,26.8
2017-06-01T08:57:02.981Z,27.3
2017-06-01T09:02:11.413Z,28.1
2017-06-01T09:07:03.621Z,28.6
2017-06-01T09:12:02.923Z,28.5
2017-06-01T09:17:13.864Z,28.7
2017-06-01T09:22:03.318Z,29.0
2017-06-01T09:27:02.985Z,29.3
2017-06-01T09:32:10.671Z,29.3
2017-06-01T09:37:02.949Z,29.6
2017-06-01T09:42:03.508Z,29.8
2017-06-01T09:47:17.743Z,30.1
2017-06-01T09:52:02.841Z,30.4
2017-06-01T09:57:03.213Z,30.6
2017-06-01T10:02:13.796Z,30.9
2017-06-01T10:07:03.100Z,31.1
2017-06-01T10:12:03.580Z,31.2
2017-06-01T10:17:05.763Z,31.3
2017-06-01T10:22:02.841Z,31.2
2017-06-01T10:27:03.519Z,31.2
2017-06-01T10:32:13.049Z,31.5
2017-06-01T10:37:03.055Z,31.7
2017-06-01T10:42:03.347Z,31.9
2017-06-01T10:47:17.961Z,32.3
2017-06-01T10:52:02.810Z,32.8
2017-06-01T10:57:02.722Z,32.8
2017-06-01T11:02:16.694Z,32.7
2017-06-01T11:07:02.745Z,32.7
2017-06-01T11:12:03.672Z,32.6
2017-06-01T11:17:13.851Z,33.7
2017-06-01T11:22:02.929Z,33.7
2017-06-01T11:27:03.655Z,34.1
2017-06-01T11:32:16.416Z,34.0
2017-06-01T11:37:03.075Z,33.3
2017-06-01T11:42:02.693Z,33.2
2017-06-01T11:47:05.848Z,33.6
2017-06-01T11:52:02.781Z,33.6
2017-06-01T11:57:03.438Z,33.6
2017-06-01T12:02:05.750Z,34.1
2017-06-01T12:07:03.118Z,34.1
2017-06-01T12:12:03.087Z,34.6
2017-06-01T12:17:17.716Z,34.0
2017-06-01T12:22:02.842Z,33.9
2017-06-01T12:27:03.379Z,34.4
2017-06-01T12:32:13.656Z,35.2
2017-06-01T12:37:03.315Z,36.0
2017-06-01T12:42:03.591Z,36.4
2017-06-01T12:47:13.873Z,36.2
2017-06-01T12:52:03.086Z,36.3
2017-06-01T12:57:02.700Z,36.5
2017-06-01T13:02:13.266Z,36.4
2017-06-01T13:07:02.855Z,36.4
2017-06-01T13:12:03.285Z,36.7
2017-06-01T13:17:17.891Z,36.6
2017-06-01T13:22:02.933Z,37.3
2017-06-01T13:27:03.284Z,37.3
2017-06-01T13:32:16.931Z,37.3
2017-06-01T13:37:03.181Z,37.3
2017-06-01T13:42:03.410Z,37.2
2017-06-01T13:47:16.875Z,37.2
2017-06-01T13:52:02.756Z,37.5
2017-06-01T13:57:03.415Z,37.6
2017-06-01T14:02:11.894Z,38.7
2017-06-01T14:07:03.036Z,38.7
2017-06-01T14:12:03.584Z,38.7
2017-06-01T14:17:14.877Z,38.7
2017-06-01T14:22:02.737Z,38.8
2017-06-01T14:27:02.941Z,39.7
2017-06-01T14:37:02.751Z,40.4
2017-06-01T14:42:02.949Z,38.7
2017-06-01T14:52:02.972Z,38.0
2017-06-01T14:57:02.856Z,37.2
2017-06-01T15:07:03.556Z,38.9
2017-06-01T15:12:02.921Z,38.9
2017-06-01T15:17:18.211Z,39.2
2017-06-01T15:22:03.311Z,39.2
2017-06-01T15:27:03.398Z,39.4
2017-06-01T15:32:16.984Z,48.4
2017-06-01T15:37:03.577Z,48.3
2017-06-01T15:42:03.442Z,49.8
2017-06-01T15:47:17.270Z,50.3
2017-06-01T15:52:02.783Z,53.4
2017-06-01T15:57:03.418Z,53.3
2017-06-01T16:02:20.283Z,53.2
2017-06-01T16:07:03.353Z,52.5
2017-06-01T16:12:03.244Z,46.4
2017-06-01T16:17:16.049Z,46.3
2017-06-01T16:22:02.821Z,39.5
2017-06-01T16:27:03.598Z,39.1
2017-06-01T16:32:13.652Z,39.1
2017-06-01T16:37:03.459Z,41.9
2017-06-01T16:42:02.873Z,43.3
2017-06-01T16:52:03.010Z,38.0
2017-06-01T16:57:03.048Z,36.6
2017-06-01T17:02:11.519Z,34.8
2017-06-01T17:07:03.579Z,34.3
2017-06-01T17:12:03.382Z,34.3
2017-06-01T17:17:13.413Z,34.0
2017-06-01T17:22:03.556Z,34.0
2017-06-01T17:27:02.789Z,36.6
2017-06-01T17:32:09.056Z,43.1
2017-06-01T17:37:03.039Z,43.1
2017-06-01T17:42:02.803Z,44.6
2017-06-01T17:47:17.182Z,40.3
2017-06-01T17:52:03.222Z,37.1
2017-06-01T17:57:03.344Z,34.8
2017-06-01T18:02:16.233Z,32.3
2017-06-01T18:07:02.883Z,30.9
2017-06-01T18:12:03.057Z,30.1
2017-06-01T18:22:03.612Z,28.6
2017-06-01T18:27:03.455Z,28.3
2017-06-01T18:32:16.176Z,28.2
2017-06-01T18:37:02.848Z,28.0
2017-06-01T18:42:02.859Z,27.6
2017-06-01T18:47:15.717Z,27.1
2017-06-01T18:52:02.822Z,27.0
2017-06-01T18:57:03.221Z,26.6
2017-06-01T19:02:09.132Z,25.8
2017-06-01T19:07:03.339Z,25.7
2017-06-01T19:12:03.453Z,25.3
2017-06-01T19:17:17.719Z,25.1
2017-06-01T19:22:03.075Z,24.9
2017-06-01T19:27:03.529Z,24.7
2017-06-01T19:37:03.418Z,24.2
2017-06-01T19:42:02.778Z,24.0
2017-06-01T19:52:03.311Z,23.7
2017-06-01T19:57:03.254Z,23.5
2017-06-01T20:02:10.930Z,23.1
2017-06-01T20:07:03.254Z,22.9
2017-06-01T20:12:03.146Z,22.9
2017-06-01T20:17:03.349Z,22.7
2017-06-01T20:22:03.538Z,22.7
2017-06-01T20:27:03.651Z,22.6
2017-06-01T20:32:03.023Z,22.6
2017-06-01T20:37:03.616Z,22.6
2017-06-01T20:42:03.223Z,22.6
2017-06-01T20:47:02.832Z,22.5
2017-06-01T20:52:02.686Z,22.5
2017-06-01T20:57:03.399Z,22.5
2017-06-01T21:02:03.602Z,22.6
2017-06-01T21:07:02.851Z,22.5
2017-06-01T21:12:03.665Z,22.5
2017-06-01T21:17:03.285Z,22.5
2017-06-01T21:22:03.467Z,22.4
2017-06-01T21:27:03.208Z,22.4
2017-06-01T21:32:03.151Z,22.4
2017-06-01T21:37:03.068Z,22.3
2017-06-01T21:42:02.927Z,22.4
2017-06-01T21:47:03.332Z,22.4
2017-06-01T21:52:03.525Z,22.3
2017-06-01T21:57:03.141Z,22.4
2017-06-01T22:02:03.300Z,22.3
2017-06-01T22:07:02.786Z,22.2
2017-06-01T22:12:02.905Z,22.2
2017-06-01T22:22:03.285Z,22.0
2017-06-01T22:27:02.735Z,22.0
2017-06-01T22:32:03.552Z,22.0
2017-06-01T22:37:02.856Z,21.9
2017-06-01T22:42:03.416Z,21.8
2017-06-01T22:47:02.720Z,21.8
2017-06-01T22:52:03.136Z,21.7
2017-06-01T22:57:02.734Z,21.6
2017-06-01T23:02:03.738Z,21.6
2017-06-01T23:07:02.809Z,21.6
2017-06-01T23:12:03.354Z,21.5
2017-06-01T23:17:05.928Z,21.5
2017-06-01T23:22:03.199Z,21.4
2017-06-01T23:27:03.020Z,21.5
2017-06-01T23:32:03.603Z,21.3
2017-06-01T23:37:03.515Z,21.3
2017-06-01T23:42:02.997Z,21.3
2017-06-01T23:47:03.575Z,21.2
2017-06-01T23:52:03.097Z,21.2
2017-06-01T23:57:03.458Z,21.2
